sensor_id;sensor_type;location;lat;lon;timestamp;P1;durP1;ratioP1;P2;durP2;ratioP2
20792;SDS011;10556;-33.662;151.094;2024-03-06T00:00:06;3.38;;;1.30;;
20792;SDS011;10556;-33.662;151.094;2024-03-06T00:05:09;5.68;;;1.02;;
20792;SDS011;10556;-33.662;151.094;2024-03-06T00:10:16;4.65;;;1.00;;
20792;SDS011;10556;-33.662;151.094;2024-03-06T00:15:19;4.50;;;1.20;;
20792;SDS011;10556;-33.662;151.094;2024-03-06T00:20:22;5.22;;;1.15;;
20792;SDS011;10556;-33.662;151.094;2024-03-06T00:25:27;6.75;;;1.27;;
20792;SDS011;10556;-33.662;151.094;2024-03-06T00:30:31;6.32;;;1.33;;
20792;SDS011;10556;-33.662;151.094;2024-03-06T00:35:33;5.45;;;1.33;;
20792;SDS011;10556;-33.662;151.094;2024-03-06T00:40:38;4.22;;;1.10;;
20792;SDS011;10556;-33.662;151.094;2024-03-06T00:45:41;6.38;;;1.20;;
20792;SDS011;10556;-33.662;151.094;2024-03-06T00:50:43;3.30;;;1.00;;
20792;SDS011;10556;-33.662;151.094;2024-03-06T00:55:48;2.65;;;0.90;;
20792;SDS011;10556;-33.662;151.094;2024-03-06T01:00:51;2.25;;;0.90;;
20792;SDS011;10556;-33.662;151.094;2024-03-06T01:05:54;4.82;;;1.05;;
20792;SDS011;10556;-33.662;151.094;2024-03-06T01:10:59;3.38;;;1.02;;
20792;SDS011;10556;-33.662;151.094;2024-03-06T01:16:02;3.38;;;0.85;;
20792;SDS011;10556;-33.662;151.094;2024-03-06T01:21:06;6.60;;;0.90;;
20792;SDS011;10556;-33.662;151.094;2024-03-06T01:26:11;6.00;;;1.23;;
20792;SDS011;10556;-33.662;151.094;2024-03-06T01:31:14;3.55;;;0.80;;
20792;SDS011;10556;-33.662;151.094;2024-03-06T01:36:17;3.28;;;0.98;;
20792;SDS011;10556;-33.662;151.094;2024-03-06T01:41:22;6.40;;;1.42;;
20792;SDS011;10556;-33.662;151.094;2024-03-06T01:46:25;6.32;;;0.80;;
20792;SDS011;10556;-33.662;151.094;2024-03-06T01:51:27;3.70;;;1.08;;
20792;SDS011;10556;-33.662;151.094;2024-03-06T01:56:32;5.72;;;1.25;;
20792;SDS011;10556;-33.662;151.094;2024-03-06T02:01:36;3.38;;;0.95;;
20792;SDS011;10556;-33.662;151.094;2024-03-06T02:06:42;5.93;;;1.00;;
20792;SDS011;10556;-33.662;151.094;2024-03-06T02:11:47;3.22;;;1.17;;
20792;SDS011;10556;-33.662;151.094;2024-03-06T02:16:50;5.85;;;0.95;;
20792;SDS011;10556;-33.662;151.094;2024-03-06T02:21:56;1.83;;;0.90;;
20792;SDS011;10556;-33.662;151.094;2024-03-06T02:26:59;1.88;;;0.63;;
20792;SDS011;10556;-33.662;151.094;2024-03-06T02:32:02;2.95;;;0.90;;
20792;SDS011;10556;-33.662;151.094;2024-03-06T02:37:10;2.50;;;0.70;;
20792;SDS011;10556;-33.662;151.094;2024-03-06T02:42:15;3.65;;;1.00;;
20792;SDS011;10556;-33.662;151.094;2024-03-06T02:47:21;4.35;;;1.00;;
20792;SDS011;10556;-33.662;151.094;2024-03-06T02:52:26;3.60;;;1.13;;
20792;SDS011;10556;-33.662;151.094;2024-03-06T02:57:30;3.25;;;1.23;;
20792;SDS011;10556;-33.662;151.094;2024-03-06T03:02:33;6.18;;;1.45;;
20792;SDS011;10556;-33.662;151.094;2024-03-06T03:07:38;7.90;;;0.90;;
20792;SDS011;10556;-33.662;151.094;2024-03-06T03:12:41;5.63;;;0.80;;
20792;SDS011;10556;-33.662;151.094;2024-03-06T03:17:44;3.90;;;0.90;;
20792;SDS011;10556;-33.662;151.094;2024-03-06T03:22:48;3.10;;;1.00;;
20792;SDS011;10556;-33.662;151.094;2024-03-06T03:27:51;2.88;;;0.90;;
20792;SDS011;10556;-33.662;151.094;2024-03-06T03:32:54;4.20;;;0.73;;
20792;SDS011;10556;-33.662;151.094;2024-03-06T03:37:59;3.47;;;1.10;;
20792;SDS011;10556;-33.662;151.094;2024-03-06T03:43:03;2.78;;;0.93;;
20792;SDS011;10556;-33.662;151.094;2024-03-06T03:48:06;5.53;;;1.27;;
20792;SDS011;10556;-33.662;151.094;2024-03-06T03:53:15;6.22;;;1.20;;
20792;SDS011;10556;-33.662;151.094;2024-03-06T03:58:18;6.35;;;1.00;;
20792;SDS011;10556;-33.662;151.094;2024-03-06T04:03:21;4.90;;;1.38;;
20792;SDS011;10556;-33.662;151.094;2024-03-06T04:08:27;6.72;;;1.35;;
20792;SDS011;10556;-33.662;151.094;2024-03-06T04:13:30;5.47;;;1.60;;
20792;SDS011;10556;-33.662;151.094;2024-03-06T04:18:38;5.07;;;1.73;;
20792;SDS011;10556;-33.662;151.094;2024-03-06T04:23:44;9.10;;;1.52;;
20792;SDS011;10556;-33.662;151.094;2024-03-06T04:28:47;6.88;;;1.60;;
20792;SDS011;10556;-33.662;151.094;2024-03-06T04:33:50;6.35;;;1.80;;
20792;SDS011;10556;-33.662;151.094;2024-03-06T04:38:54;9.93;;;1.73;;
20792;SDS011;10556;-33.662;151.094;2024-03-06T04:43:57;9.85;;;2.00;;
20792;SDS011;10556;-33.662;151.094;2024-03-06T04:49:00;8.98;;;1.95;;
20792;SDS011;10556;-33.662;151.094;2024-03-06T04:54:05;5.57;;;1.48;;
20792;SDS011;10556;-33.662;151.094;2024-03-06T04:59:09;11.75;;;1.80;;
20792;SDS011;10556;-33.662;151.094;2024-03-06T05:04:12;14.30;;;1.80;;
20792;SDS011;10556;-33.662;151.094;2024-03-06T05:09:21;7.20;;;1.65;;
20792;SDS011;10556;-33.662;151.094;2024-03-06T05:14:24;5.47;;;1.55;;
20792;SDS011;10556;-33.662;151.094;2024-03-06T05:19:34;7.57;;;1.73;;
20792;SDS011;10556;-33.662;151.094;2024-03-06T05:24:38;4.70;;;1.60;;
20792;SDS011;10556;-33.662;151.094;2024-03-06T05:29:42;10.27;;;1.58;;
20792;SDS011;10556;-33.662;151.094;2024-03-06T05:34:46;8.55;;;1.60;;
20792;SDS011;10556;-33.662;151.094;2024-03-06T05:39:56;6.78;;;1.95;;
20792;SDS011;10556;-33.662;151.094;2024-03-06T05:44:59;8.68;;;1.40;;
20792;SDS011;10556;-33.662;151.094;2024-03-06T05:50:04;6.95;;;1.73;;
20792;SDS011;10556;-33.662;151.094;2024-03-06T05:55:10;6.97;;;1.40;;
20792;SDS011;10556;-33.662;151.094;2024-03-06T06:00:13;7.25;;;1.40;;
20792;SDS011;10556;-33.662;151.094;2024-03-06T06:05:17;6.10;;;1.85;;
20792;SDS011;10556;-33.662;151.094;2024-03-06T06:10:23;6.65;;;1.70;;
20792;SDS011;10556;-33.662;151.094;2024-03-06T06:15:27;5.97;;;1.63;;
20792;SDS011;10556;-33.662;151.094;2024-03-06T06:20:30;6.05;;;1.23;;
20792;SDS011;10556;-33.662;151.094;2024-03-06T06:25:36;7.47;;;1.60;;
20792;SDS011;10556;-33.662;151.094;2024-03-06T06:30:42;7.35;;;1.23;;
20792;SDS011;10556;-33.662;151.094;2024-03-06T06:35:45;5.90;;;1.40;;
20792;SDS011;10556;-33.662;151.094;2024-03-06T06:40:54;5.53;;;1.65;;
20792;SDS011;10556;-33.662;151.094;2024-03-06T06:45:59;10.90;;;1.60;;
20792;SDS011;10556;-33.662;151.094;2024-03-06T06:51:04;7.97;;;1.60;;
20792;SDS011;10556;-33.662;151.094;2024-03-06T06:56:09;6.60;;;1.92;;
20792;SDS011;10556;-33.662;151.094;2024-03-06T07:01:12;7.47;;;1.38;;
20792;SDS011;10556;-33.662;151.094;2024-03-06T07:06:16;8.27;;;1.67;;
20792;SDS011;10556;-33.662;151.094;2024-03-06T07:11:21;7.60;;;1.60;;
20792;SDS011;10556;-33.662;151.094;2024-03-06T07:16:25;9.00;;;1.90;;
20792;SDS011;10556;-33.662;151.094;2024-03-06T07:21:28;9.03;;;1.63;;
20792;SDS011;10556;-33.662;151.094;2024-03-06T07:26:37;6.63;;;1.30;;
20792;SDS011;10556;-33.662;151.094;2024-03-06T07:31:41;12.77;;;1.70;;
20792;SDS011;10556;-33.662;151.094;2024-03-06T07:36:48;6.13;;;1.70;;
20792;SDS011;10556;-33.662;151.094;2024-03-06T07:41:57;12.47;;;1.40;;
20792;SDS011;10556;-33.662;151.094;2024-03-06T07:47:00;9.17;;;1.80;;
20792;SDS011;10556;-33.662;151.094;2024-03-06T07:52:04;11.10;;;2.20;;
20792;SDS011;10556;-33.662;151.094;2024-03-06T07:57:09;11.37;;;1.80;;
20792;SDS011;10556;-33.662;151.094;2024-03-06T08:02:12;12.10;;;1.83;;
20792;SDS011;10556;-33.662;151.094;2024-03-06T08:07:15;5.93;;;1.50;;
20792;SDS011;10556;-33.662;151.094;2024-03-06T08:12:20;10.97;;;1.43;;
20792;SDS011;10556;-33.662;151.094;2024-03-06T08:17:24;13.10;;;2.80;;
20792;SDS011;10556;-33.662;151.094;2024-03-06T08:22:27;9.67;;;1.67;;
20792;SDS011;10556;-33.662;151.094;2024-03-06T08:27:33;10.30;;;1.83;;
20792;SDS011;10556;-33.662;151.094;2024-03-06T08:32:37;12.37;;;2.50;;
20792;SDS011;10556;-33.662;151.094;2024-03-06T08:37:43;10.57;;;2.00;;
20792;SDS011;10556;-33.662;151.094;2024-03-06T08:42:52;9.83;;;2.27;;
20792;SDS011;10556;-33.662;151.094;2024-03-06T08:47:56;11.87;;;1.67;;
20792;SDS011;10556;-33.662;151.094;2024-03-06T08:53:00;15.13;;;2.23;;
20792;SDS011;10556;-33.662;151.094;2024-03-06T08:58:06;10.70;;;1.97;;
20792;SDS011;10556;-33.662;151.094;2024-03-06T09:03:08;13.20;;;1.77;;
20792;SDS011;10556;-33.662;151.094;2024-03-06T09:08:11;15.20;;;2.23;;
20792;SDS011;10556;-33.662;151.094;2024-03-06T09:13:16;8.53;;;1.90;;
20792;SDS011;10556;-33.662;151.094;2024-03-06T09:18:19;12.13;;;1.40;;
20792;SDS011;10556;-33.662;151.094;2024-03-06T09:23:21;10.70;;;2.33;;
20792;SDS011;10556;-33.662;151.094;2024-03-06T09:28:29;13.17;;;1.80;;
20792;SDS011;10556;-33.662;151.094;2024-03-06T09:33:31;12.87;;;2.37;;
20792;SDS011;10556;-33.662;151.094;2024-03-06T09:38:35;14.77;;;2.50;;
20792;SDS011;10556;-33.662;151.094;2024-03-06T09:43:41;8.77;;;1.63;;
20792;SDS011;10556;-33.662;151.094;2024-03-06T09:48:47;9.27;;;2.30;;
20792;SDS011;10556;-33.662;151.094;2024-03-06T09:53:52;12.97;;;1.73;;
20792;SDS011;10556;-33.662;151.094;2024-03-06T09:59:00;14.60;;;2.70;;
20792;SDS011;10556;-33.662;151.094;2024-03-06T10:09:20;5.63;;;2.10;;
20792;SDS011;10556;-33.662;151.094;2024-03-06T10:14:26;11.17;;;2.00;;
20792;SDS011;10556;-33.662;151.094;2024-03-06T10:19:29;11.00;;;2.07;;
20792;SDS011;10556;-33.662;151.094;2024-03-06T10:24:32;11.73;;;1.97;;
20792;SDS011;10556;-33.662;151.094;2024-03-06T10:29:37;9.20;;;1.50;;
20792;SDS011;10556;-33.662;151.094;2024-03-06T10:34:40;7.30;;;1.93;;
20792;SDS011;10556;-33.662;151.094;2024-03-06T10:39:46;6.67;;;1.30;;
20792;SDS011;10556;-33.662;151.094;2024-03-06T10:44:55;16.50;;;2.47;;
20792;SDS011;10556;-33.662;151.094;2024-03-06T10:50:02;10.93;;;1.80;;
20792;SDS011;10556;-33.662;151.094;2024-03-06T10:55:07;9.47;;;1.60;;
20792;SDS011;10556;-33.662;151.094;2024-03-06T11:00:15;6.87;;;1.40;;
20792;SDS011;10556;-33.662;151.094;2024-03-06T11:05:19;11.33;;;1.97;;
20792;SDS011;10556;-33.662;151.094;2024-03-06T11:10:31;11.27;;;1.80;;
20792;SDS011;10556;-33.662;151.094;2024-03-06T11:15:48;10.67;;;1.80;;
20792;SDS011;10556;-33.662;151.094;2024-03-06T11:20:59;8.50;;;1.53;;
20792;SDS011;10556;-33.662;151.094;2024-03-06T11:26:22;10.53;;;1.63;;
20792;SDS011;10556;-33.662;151.094;2024-03-06T11:31:31;14.77;;;2.63;;
20792;SDS011;10556;-33.662;151.094;2024-03-06T11:36:34;10.27;;;1.80;;
20792;SDS011;10556;-33.662;151.094;2024-03-06T11:41:47;11.57;;;2.23;;
20792;SDS011;10556;-33.662;151.094;2024-03-06T11:46:57;12.10;;;2.43;;
20792;SDS011;10556;-33.662;151.094;2024-03-06T11:52:02;18.13;;;2.70;;
20792;SDS011;10556;-33.662;151.094;2024-03-06T11:57:06;21.37;;;2.73;;
20792;SDS011;10556;-33.662;151.094;2024-03-06T12:02:12;18.83;;;2.97;;
20792;SDS011;10556;-33.662;151.094;2024-03-06T12:07:15;12.10;;;2.20;;
20792;SDS011;10556;-33.662;151.094;2024-03-06T12:12:18;26.50;;;2.80;;
20792;SDS011;10556;-33.662;151.094;2024-03-06T12:17:26;13.67;;;1.77;;
20792;SDS011;10556;-33.662;151.094;2024-03-06T12:22:28;13.40;;;2.70;;
20792;SDS011;10556;-33.662;151.094;2024-03-06T12:27:33;12.87;;;1.90;;
20792;SDS011;10556;-33.662;151.094;2024-03-06T12:32:38;12.90;;;2.17;;
20792;SDS011;10556;-33.662;151.094;2024-03-06T12:37:41;6.50;;;1.40;;
20792;SDS011;10556;-33.662;151.094;2024-03-06T12:42:43;10.67;;;2.30;;
20792;SDS011;10556;-33.662;151.094;2024-03-06T12:47:49;2.73;;;1.03;;
20792;SDS011;10556;-33.662;151.094;2024-03-06T12:52:52;21.57;;;2.70;;
20792;SDS011;10556;-33.662;151.094;2024-03-06T12:57:55;21.67;;;2.77;;
20792;SDS011;10556;-33.662;151.094;2024-03-06T13:03:00;18.07;;;2.57;;
20792;SDS011;10556;-33.662;151.094;2024-03-06T13:08:03;18.20;;;2.40;;
20792;SDS011;10556;-33.662;151.094;2024-03-06T13:13:06;11.83;;;2.20;;
20792;SDS011;10556;-33.662;151.094;2024-03-06T13:18:11;21.80;;;3.30;;
20792;SDS011;10556;-33.662;151.094;2024-03-06T13:23:13;13.07;;;2.47;;
20792;SDS011;10556;-33.662;151.094;2024-03-06T13:28:17;7.10;;;1.53;;
20792;SDS011;10556;-33.662;151.094;2024-03-06T13:33:22;15.27;;;2.50;;
20792;SDS011;10556;-33.662;151.094;2024-03-06T13:38:24;19.97;;;2.70;;
20792;SDS011;10556;-33.662;151.094;2024-03-06T13:43:27;16.13;;;2.37;;
20792;SDS011;10556;-33.662;151.094;2024-03-06T13:48:32;12.53;;;2.50;;
20792;SDS011;10556;-33.662;151.094;2024-03-06T13:53:34;20.87;;;3.17;;
20792;SDS011;10556;-33.662;151.094;2024-03-06T13:58:37;22.53;;;3.80;;
20792;SDS011;10556;-33.662;151.094;2024-03-06T14:03:41;24.63;;;3.63;;
20792;SDS011;10556;-33.662;151.094;2024-03-06T14:08:44;24.57;;;4.97;;
20792;SDS011;10556;-33.662;151.094;2024-03-06T14:13:47;29.13;;;3.50;;
20792;SDS011;10556;-33.662;151.094;2024-03-06T14:18:51;18.67;;;2.70;;
20792;SDS011;10556;-33.662;151.094;2024-03-06T14:23:54;15.70;;;2.70;;
20792;SDS011;10556;-33.662;151.094;2024-03-06T14:28:57;11.73;;;2.60;;
20792;SDS011;10556;-33.662;151.094;2024-03-06T14:34:01;14.37;;;1.97;;
20792;SDS011;10556;-33.662;151.094;2024-03-06T14:39:04;14.33;;;2.27;;
20792;SDS011;10556;-33.662;151.094;2024-03-06T14:44:07;24.03;;;3.07;;
20792;SDS011;10556;-33.662;151.094;2024-03-06T14:49:11;17.53;;;2.53;;
20792;SDS011;10556;-33.662;151.094;2024-03-06T14:54:14;14.40;;;2.33;;
20792;SDS011;10556;-33.662;151.094;2024-03-06T14:59:16;16.23;;;2.20;;
20792;SDS011;10556;-33.662;151.094;2024-03-06T15:04:21;20.77;;;3.20;;
20792;SDS011;10556;-33.662;151.094;2024-03-06T15:09:24;15.37;;;2.60;;
20792;SDS011;10556;-33.662;151.094;2024-03-06T15:14:26;10.87;;;2.13;;
20792;SDS011;10556;-33.662;151.094;2024-03-06T15:19:31;10.03;;;2.00;;
20792;SDS011;10556;-33.662;151.094;2024-03-06T15:24:34;7.43;;;1.90;;
20792;SDS011;10556;-33.662;151.094;2024-03-06T15:29:37;9.80;;;1.83;;
20792;SDS011;10556;-33.662;151.094;2024-03-06T15:34:41;7.67;;;2.23;;
20792;SDS011;10556;-33.662;151.094;2024-03-06T15:39:44;13.80;;;2.70;;
20792;SDS011;10556;-33.662;151.094;2024-03-06T15:44:47;10.87;;;2.33;;
20792;SDS011;10556;-33.662;151.094;2024-03-06T15:49:51;15.23;;;2.73;;
20792;SDS011;10556;-33.662;151.094;2024-03-06T15:54:55;16.97;;;2.97;;
20792;SDS011;10556;-33.662;151.094;2024-03-06T15:59:58;15.30;;;2.57;;
20792;SDS011;10556;-33.662;151.094;2024-03-06T16:05:03;17.30;;;2.70;;
20792;SDS011;10556;-33.662;151.094;2024-03-06T16:10:06;15.00;;;3.10;;
20792;SDS011;10556;-33.662;151.094;2024-03-06T16:15:09;13.70;;;2.67;;
20792;SDS011;10556;-33.662;151.094;2024-03-06T16:20:14;13.10;;;2.43;;
20792;SDS011;10556;-33.662;151.094;2024-03-06T16:25:16;15.97;;;2.70;;
20792;SDS011;10556;-33.662;151.094;2024-03-06T16:30:19;10.33;;;2.37;;
20792;SDS011;10556;-33.662;151.094;2024-03-06T16:35:24;4.47;;;1.53;;
20792;SDS011;10556;-33.662;151.094;2024-03-06T16:40:26;5.77;;;1.83;;
20792;SDS011;10556;-33.662;151.094;2024-03-06T16:45:29;13.03;;;2.20;;
20792;SDS011;10556;-33.662;151.094;2024-03-06T16:50:34;14.33;;;2.30;;
20792;SDS011;10556;-33.662;151.094;2024-03-06T16:55:38;14.60;;;2.60;;
20792;SDS011;10556;-33.662;151.094;2024-03-06T17:00:42;5.00;;;1.83;;
20792;SDS011;10556;-33.662;151.094;2024-03-06T17:05:51;5.77;;;2.50;;
20792;SDS011;10556;-33.662;151.094;2024-03-06T17:10:54;5.13;;;1.87;;
20792;SDS011;10556;-33.662;151.094;2024-03-06T17:15:58;8.00;;;1.80;;
20792;SDS011;10556;-33.662;151.094;2024-03-06T17:21:03;9.63;;;2.33;;
20792;SDS011;10556;-33.662;151.094;2024-03-06T17:26:07;5.93;;;2.20;;
20792;SDS011;10556;-33.662;151.094;2024-03-06T17:31:09;6.37;;;2.20;;
20792;SDS011;10556;-33.662;151.094;2024-03-06T17:36:14;25.03;;;3.30;;
20792;SDS011;10556;-33.662;151.094;2024-03-06T17:41:16;20.57;;;3.07;;
20792;SDS011;10556;-33.662;151.094;2024-03-06T17:46:19;12.87;;;2.80;;
20792;SDS011;10556;-33.662;151.094;2024-03-06T17:51:29;10.27;;;3.00;;
20792;SDS011;10556;-33.662;151.094;2024-03-06T17:56:32;6.67;;;2.00;;
20792;SDS011;10556;-33.662;151.094;2024-03-06T18:01:35;6.80;;;2.10;;
20792;SDS011;10556;-33.662;151.094;2024-03-06T18:06:39;5.67;;;1.83;;
20792;SDS011;10556;-33.662;151.094;2024-03-06T18:11:42;5.57;;;1.93;;
20792;SDS011;10556;-33.662;151.094;2024-03-06T18:16:45;6.47;;;1.90;;
20792;SDS011;10556;-33.662;151.094;2024-03-06T18:21:50;11.10;;;2.87;;
20792;SDS011;10556;-33.662;151.094;2024-03-06T18:26:52;11.57;;;2.60;;
20792;SDS011;10556;-33.662;151.094;2024-03-06T18:31:55;5.83;;;2.10;;
20792;SDS011;10556;-33.662;151.094;2024-03-06T18:37:00;8.73;;;2.80;;
20792;SDS011;10556;-33.662;151.094;2024-03-06T18:42:02;12.33;;;2.90;;
20792;SDS011;10556;-33.662;151.094;2024-03-06T18:47:05;3.47;;;2.20;;
20792;SDS011;10556;-33.662;151.094;2024-03-06T18:52:10;4.00;;;1.60;;
20792;SDS011;10556;-33.662;151.094;2024-03-06T18:57:13;17.50;;;4.13;;
20792;SDS011;10556;-33.662;151.094;2024-03-06T19:02:15;12.13;;;2.87;;
20792;SDS011;10556;-33.662;151.094;2024-03-06T19:07:20;11.50;;;2.77;;
20792;SDS011;10556;-33.662;151.094;2024-03-06T19:12:23;8.40;;;2.77;;
20792;SDS011;10556;-33.662;151.094;2024-03-06T19:17:25;10.30;;;2.60;;
20792;SDS011;10556;-33.662;151.094;2024-03-06T19:22:30;7.30;;;2.27;;
20792;SDS011;10556;-33.662;151.094;2024-03-06T19:27:33;4.57;;;1.90;;
20792;SDS011;10556;-33.662;151.094;2024-03-06T19:32:36;9.57;;;2.60;;
20792;SDS011;10556;-33.662;151.094;2024-03-06T19:37:41;6.87;;;2.50;;
20792;SDS011;10556;-33.662;151.094;2024-03-06T19:42:44;11.90;;;3.13;;
20792;SDS011;10556;-33.662;151.094;2024-03-06T19:47:46;15.97;;;3.63;;
20792;SDS011;10556;-33.662;151.094;2024-03-06T19:52:51;7.70;;;2.83;;
20792;SDS011;10556;-33.662;151.094;2024-03-06T19:57:54;3.57;;;2.20;;
20792;SDS011;10556;-33.662;151.094;2024-03-06T20:02:58;9.20;;;2.57;;
20792;SDS011;10556;-33.662;151.094;2024-03-06T20:08:02;7.40;;;2.47;;
20792;SDS011;10556;-33.662;151.094;2024-03-06T20:13:06;6.93;;;2.63;;
20792;SDS011;10556;-33.662;151.094;2024-03-06T20:18:08;5.17;;;2.40;;
20792;SDS011;10556;-33.662;151.094;2024-03-06T20:23:13;10.27;;;3.33;;
20792;SDS011;10556;-33.662;151.094;2024-03-06T20:28:16;8.23;;;3.20;;
20792;SDS011;10556;-33.662;151.094;2024-03-06T20:33:18;6.47;;;2.80;;
20792;SDS011;10556;-33.662;151.094;2024-03-06T20:38:23;2.60;;;2.10;;
20792;SDS011;10556;-33.662;151.094;2024-03-06T20:43:25;9.93;;;3.77;;
20792;SDS011;10556;-33.662;151.094;2024-03-06T20:48:28;12.63;;;4.17;;
20792;SDS011;10556;-33.662;151.094;2024-03-06T20:53:32;9.10;;;3.47;;
20792;SDS011;10556;-33.662;151.094;2024-03-06T20:58:35;9.60;;;3.77;;
20792;SDS011;10556;-33.662;151.094;2024-03-06T21:03:38;7.43;;;3.73;;
20792;SDS011;10556;-33.662;151.094;2024-03-06T21:08:43;10.53;;;4.43;;
20792;SDS011;10556;-33.662;151.094;2024-03-06T21:13:46;10.80;;;3.80;;
20792;SDS011;10556;-33.662;151.094;2024-03-06T21:18:49;29.53;;;6.33;;
20792;SDS011;10556;-33.662;151.094;2024-03-06T21:23:53;32.87;;;5.90;;
20792;SDS011;10556;-33.662;151.094;2024-03-06T21:28:56;22.10;;;5.70;;
20792;SDS011;10556;-33.662;151.094;2024-03-06T21:33:59;33.17;;;6.17;;
20792;SDS011;10556;-33.662;151.094;2024-03-06T21:39:03;25.47;;;6.00;;
20792;SDS011;10556;-33.662;151.094;2024-03-06T21:44:06;20.80;;;4.80;;
20792;SDS011;10556;-33.662;151.094;2024-03-06T21:49:09;18.33;;;4.43;;
20792;SDS011;10556;-33.662;151.094;2024-03-06T21:54:13;14.27;;;3.60;;
20792;SDS011;10556;-33.662;151.094;2024-03-06T21:59:16;16.60;;;3.90;;
20792;SDS011;10556;-33.662;151.094;2024-03-06T22:04:19;17.83;;;3.83;;
20792;SDS011;10556;-33.662;151.094;2024-03-06T22:09:23;18.33;;;3.43;;
20792;SDS011;10556;-33.662;151.094;2024-03-06T22:14:26;13.13;;;2.73;;
20792;SDS011;10556;-33.662;151.094;2024-03-06T22:19:29;14.37;;;3.67;;
20792;SDS011;10556;-33.662;151.094;2024-03-06T22:24:34;13.23;;;3.30;;
20792;SDS011;10556;-33.662;151.094;2024-03-06T22:29:36;9.50;;;2.93;;
20792;SDS011;10556;-33.662;151.094;2024-03-06T22:34:39;14.90;;;3.67;;
20792;SDS011;10556;-33.662;151.094;2024-03-06T22:39:44;15.60;;;3.17;;
20792;SDS011;10556;-33.662;151.094;2024-03-06T22:44:46;17.13;;;3.63;;
20792;SDS011;10556;-33.662;151.094;2024-03-06T22:49:49;17.07;;;4.43;;
20792;SDS011;10556;-33.662;151.094;2024-03-06T22:54:54;19.10;;;4.57;;
20792;SDS011;10556;-33.662;151.094;2024-03-06T22:59:56;19.42;;;4.15;;
20792;SDS011;10556;-33.662;151.094;2024-03-06T23:04:59;17.55;;;4.28;;
20792;SDS011;10556;-33.662;151.094;2024-03-06T23:10:04;20.55;;;4.88;;
20792;SDS011;10556;-33.662;151.094;2024-03-06T23:15:07;18.92;;;4.75;;
20792;SDS011;10556;-33.662;151.094;2024-03-06T23:20:10;19.38;;;4.60;;
20792;SDS011;10556;-33.662;151.094;2024-03-06T23:25:15;13.95;;;4.53;;
20792;SDS011;10556;-33.662;151.094;2024-03-06T23:30:19;23.65;;;5.40;;
20792;SDS011;10556;-33.662;151.094;2024-03-06T23:35:22;13.60;;;5.05;;
20792;SDS011;10556;-33.662;151.094;2024-03-06T23:40:26;29.42;;;6.43;;
20792;SDS011;10556;-33.662;151.094;2024-03-06T23:45:32;16.83;;;5.00;;
20792;SDS011;10556;-33.662;151.094;2024-03-06T23:50:35;23.52;;;5.65;;
20792;SDS011;10556;-33.662;151.094;2024-03-06T23:55:39;17.30;;;5.75;;
